Time;durP1;ratioP1;P1;durP2;ratioP2;P2;SDS_P1;SDS_P2;PMS_P1;PMS_P2;Temp;Humidity;BMP_temperature;BMP_pressure;BME280_temperature;BME280_humidity;BME280_pressure;Samples;Min_cycle;Max_cycle;Signal;HPM_P1;HPM_P2
2023/07/15 00:00:03;;;;;;;7.30;6.90;;;24.10;14.80;;;;;;4996748;28;20814;-63
2023/07/15 00:02:29;;;;;;;7.23;6.83;;;24.00;14.80;;;;;;4996984;28;20420;-63
2023/07/15 00:04:55;;;;;;;7.37;6.70;;;24.00;14.90;;;;;;4996917;28;20563;-63
2023/07/15 00:07:20;;;;;;;7.20;6.80;;;23.90;15.00;;;;;;4996866;28;20213;-63
2023/07/15 00:09:46;;;;;;;7.80;7.30;;;23.90;15.40;;;;;;4996738;28;20177;-63
2023/07/15 00:12:11;;;;;;;8.90;7.70;;;23.90;15.70;;;;;;4996607;28;20320;-56
2023/07/15 00:14:39;;;;;;;8.33;7.93;;;23.90;15.70;;;;;;4996777;28;20227;-62
2023/07/15 00:17:05;;;;;;;8.30;7.90;;;23.80;16.00;;;;;;4996592;28;20592;-63
2023/07/15 00:19:33;;;;;;;9.70;9.00;;;23.80;15.90;;;;;;4996543;28;20424;-57
2023/07/15 00:21:59;;;;;;;10.23;9.63;;;23.80;15.90;;;;;;4996420;28;20436;-56
2023/07/15 00:24:25;;;;;;;9.03;8.47;;;23.80;16.10;;;;;;4996660;28;20413;-55
2023/07/15 00:26:52;;;;;;;9.00;8.40;;;23.70;16.10;;;;;;4996397;28;20274;-56
2023/07/15 00:29:19;;;;;;;9.20;8.37;;;23.70;16.20;;;;;;4996119;28;20424;-57
2023/07/15 00:31:45;;;;;;;8.60;8.03;;;23.70;16.30;;;;;;4996515;28;20420;-56
2023/07/15 00:34:10;;;;;;;8.30;7.80;;;23.70;16.50;;;;;;4996287;28;20452;-56
2023/07/15 00:36:36;;;;;;;8.60;8.00;;;23.70;16.60;;;;;;4996501;28;20459;-56
2023/07/15 00:39:04;;;;;;;9.10;8.40;;;23.60;16.70;;;;;;4996217;28;20192;-57
2023/07/15 00:41:33;;;;;;;9.00;8.40;;;23.60;16.80;;;;;;4996368;28;20181;-58
2023/07/15 00:43:59;;;;;;;8.87;8.40;;;23.60;16.70;;;;;;4996114;28;20832;-57
2023/07/15 00:46:38;;;;;;;8.93;8.33;;;23.60;16.70;;;;;;4996132;28;20558;-56
2023/07/15 00:49:20;;;;;;;8.77;8.20;;;23.60;16.80;;;;;;4995869;28;20434;-57
2023/07/15 00:51:48;;;;;;;8.97;8.37;;;23.60;16.60;;;;;;4996141;28;20424;-63
2023/07/15 00:54:15;;;;;;;8.73;8.30;;;23.60;16.60;;;;;;4995805;28;20424;-64
2023/07/15 00:56:43;;;;;;;8.80;8.30;;;23.60;16.60;;;;;;4995968;28;20515;-64
2023/07/15 00:59:11;;;;;;;8.53;8.03;;;23.60;16.80;;;;;;4995448;28;20945;-64
2023/07/15 01:01:37;;;;;;;8.43;7.93;;;23.60;16.70;;;;;;4995971;28;20929;-64
2023/07/15 01:04:03;;;;;;;8.67;8.03;;;23.60;16.80;;;;;;4995723;28;20455;-63
2023/07/15 01:06:29;;;;;;;9.03;8.27;;;23.60;17.10;;;;;;4995777;28;20459;-64
2023/07/15 01:08:54;;;;;;;8.60;8.10;;;23.50;16.90;;;;;;4995498;28;20424;-55
2023/07/15 01:11:21;;;;;;;8.20;7.80;;;23.50;16.90;;;;;;5011966;28;20490;-55
2023/07/15 01:13:47;;;;;;;8.33;7.87;;;23.50;16.80;;;;;;5011974;28;20181;-56
2023/07/15 01:16:13;;;;;;;8.10;7.60;;;23.50;16.80;;;;;;4995532;28;20427;-56
2023/07/15 01:18:38;;;;;;;8.27;7.77;;;23.50;17.10;;;;;;4995420;28;20412;-64
2023/07/15 01:21:05;;;;;;;9.10;8.60;;;23.50;16.90;;;;;;4995380;28;20537;-62
2023/07/15 01:23:30;;;;;;;8.20;7.67;;;23.40;17.00;;;;;;4995176;28;20257;-63
2023/07/15 01:25:57;;;;;;;7.43;7.03;;;23.40;17.20;;;;;;4995259;28;20583;-63
2023/07/15 01:28:23;;;;;;;7.77;7.37;;;23.40;17.20;;;;;;4995065;28;20213;-63
2023/07/15 01:30:49;;;;;;;7.93;7.40;;;23.40;17.30;;;;;;4995366;28;20511;-63
2023/07/15 01:33:15;;;;;;;7.63;7.30;;;23.40;17.40;;;;;;4995220;28;20950;-54
2023/07/15 01:35:47;;;;;;;8.00;7.63;;;23.30;17.30;;;;;;4995320;28;20177;-55
2023/07/15 01:38:13;;;;;;;8.20;7.70;;;23.30;17.50;;;;;;4995028;28;20601;-55
2023/07/15 01:40:39;;;;;;;8.03;7.53;;;23.30;17.50;;;;;;4995263;28;20416;-55
2023/07/15 01:43:04;;;;;;;8.97;8.27;;;23.30;17.60;;;;;;4995040;28;20452;-58
2023/07/15 01:45:30;;;;;;;8.10;7.70;;;23.30;17.60;;;;;;4995193;28;20413;-56
2023/07/15 01:47:56;;;;;;;7.53;7.13;;;23.30;17.50;;;;;;4995036;28;20304;-56
2023/07/15 01:50:22;;;;;;;7.60;7.20;;;23.30;17.70;;;;;;4995086;28;20444;-56
2023/07/15 01:52:48;;;;;;;7.73;7.33;;;23.30;17.80;;;;;;4994961;28;20177;-56
2023/07/15 01:55:14;;;;;;;7.57;7.17;;;23.30;17.90;;;;;;4994801;28;20416;-55
2023/07/15 01:57:40;;;;;;;8.00;7.63;;;23.30;17.80;;;;;;4994935;28;20181;-63
2023/07/15 02:00:06;;;;;;;8.80;8.23;;;23.30;18.40;;;;;;4994706;28;20424;-63
2023/07/15 02:02:31;;;;;;;7.90;7.50;;;23.30;18.00;;;;;;4994826;28;20181;-63
2023/07/15 02:04:57;;;;;;;7.70;7.30;;;23.30;18.10;;;;;;5012377;28;20507;-63
2023/07/15 02:07:23;;;;;;;9.07;8.67;;;23.20;18.30;;;;;;4994779;28;20649;-63
2023/07/15 02:09:48;;;;;;;7.80;7.40;;;23.20;18.30;;;;;;4994614;28;20185;-63
2023/07/15 02:12:14;;;;;;;7.80;7.30;;;23.20;18.40;;;;;;4994661;28;20196;-63
2023/07/15 02:14:40;;;;;;;8.20;7.80;;;23.20;18.40;;;;;;4994852;28;20184;-63
2023/07/15 02:17:06;;;;;;;7.90;7.50;;;23.20;18.40;;;;;;4994719;28;20181;-63
2023/07/15 02:19:32;;;;;;;7.70;7.40;;;23.20;18.50;;;;;;4994520;28;20189;-63
2023/07/15 02:21:58;;;;;;;8.57;7.97;;;23.20;18.60;;;;;;4994617;28;20774;-63
2023/07/15 02:24:24;;;;;;;8.10;7.70;;;23.20;18.60;;;;;;4994547;28;20703;-63
2023/07/15 02:26:49;;;;;;;8.00;7.60;;;23.20;18.50;;;;;;4994528;28;20472;-63
2023/07/15 02:29:15;;;;;;;8.60;8.10;;;23.20;18.60;;;;;;4994344;28;20184;-63
2023/07/15 02:31:42;;;;;;;9.13;8.67;;;23.20;18.50;;;;;;4994647;28;20264;-63
2023/07/15 02:34:08;;;;;;;9.00;8.60;;;23.20;18.50;;;;;;4994845;28;20257;-63
2023/07/15 02:36:34;;;;;;;8.57;8.07;;;23.20;18.60;;;;;;4998597;28;20435;-63
2023/07/15 02:39:00;;;;;;;8.20;7.80;;;23.20;18.60;;;;;;4998131;28;20430;-63
2023/07/15 02:41:25;;;;;;;7.60;7.20;;;23.20;18.50;;;;;;4998656;28;20424;-63
2023/07/15 02:43:51;;;;;;;8.10;7.70;;;23.20;18.60;;;;;;4998347;28;20276;-64
2023/07/15 02:46:17;;;;;;;8.20;7.80;;;23.20;18.70;;;;;;4998278;28;20542;-64
2023/07/15 02:48:42;;;;;;;7.97;7.57;;;23.20;18.60;;;;;;5014439;28;20181;-64
2023/07/15 02:51:08;;;;;;;7.90;7.50;;;23.30;18.60;;;;;;4998243;28;20177;-54
2023/07/15 02:53:34;;;;;;;7.90;7.50;;;23.20;18.40;;;;;;4998224;28;20589;-55
2023/07/15 02:56:00;;;;;;;8.27;7.70;;;23.20;18.50;;;;;;4998051;28;20185;-56
2023/07/15 02:58:26;;;;;;;8.37;7.73;;;23.20;18.50;;;;;;4997973;28;20646;-58
2023/07/15 03:00:52;;;;;;;7.70;7.10;;;23.20;18.60;;;;;;4998084;28;20428;-57
2023/07/15 03:03:18;;;;;;;8.13;7.73;;;23.20;18.50;;;;;;4998049;28;20185;-54
2023/07/15 03:05:47;;;;;;;7.77;7.47;;;23.20;19.10;;;;;;4998099;28;20424;-55
2023/07/15 03:08:14;;;;;;;7.67;7.27;;;23.20;18.50;;;;;;4997664;28;20995;-56
2023/07/15 03:10:42;;;;;;;7.77;7.37;;;23.20;18.60;;;;;;4997899;28;20509;-56
2023/07/15 03:13:08;;;;;;;9.00;8.27;;;23.20;18.60;;;;;;4997902;28;20416;-56
2023/07/15 03:15:35;;;;;;;7.90;7.50;;;23.20;18.70;;;;;;4997961;28;20423;-57
2023/07/15 03:18:02;;;;;;;7.80;7.40;;;23.20;18.60;;;;;;4997579;28;20196;-57
2023/07/15 03:20:28;;;;;;;8.20;7.80;;;23.20;18.60;;;;;;4997821;28;20482;-55
2023/07/15 03:22:54;;;;;;;8.40;7.80;;;23.20;18.60;;;;;;4997728;28;20921;-57
2023/07/15 03:25:21;;;;;;;7.50;7.10;;;23.20;18.60;;;;;;4997589;28;20197;-56
2023/07/15 03:27:48;;;;;;;7.37;7.07;;;23.20;18.80;;;;;;4997398;28;20879;-58
2023/07/15 03:30:14;;;;;;;8.13;7.73;;;23.10;18.70;;;;;;4997461;28;20416;-56
2023/07/15 03:32:40;;;;;;;8.27;7.87;;;23.20;18.70;;;;;;4997530;28;20424;-55
2023/07/15 03:35:10;;;;;;;7.63;7.23;;;23.10;18.60;;;;;;4997473;28;20408;-54
2023/07/15 03:37:42;;;;;;;8.30;7.90;;;23.10;18.60;;;;;;4997416;28;20904;-56
2023/07/15 03:40:08;;;;;;;8.00;7.50;;;23.20;18.70;;;;;;4997232;28;20422;-56
2023/07/15 03:42:35;;;;;;;7.50;7.20;;;23.10;18.70;;;;;;4997440;28;20994;-57
2023/07/15 03:45:00;;;;;;;7.63;7.33;;;23.10;18.90;;;;;;4996926;28;20417;-56
2023/07/15 03:47:26;;;;;;;7.37;6.97;;;23.10;18.90;;;;;;4997173;28;20474;-60
2023/07/15 03:49:52;;;;;;;8.40;7.63;;;23.10;19.00;;;;;;4997111;28;20181;-54
2023/07/15 03:52:17;;;;;;;7.60;7.10;;;23.10;19.00;;;;;;5013525;28;20186;-56
2023/07/15 03:54:43;;;;;;;7.20;6.80;;;23.10;19.30;;;;;;4997250;28;20177;-56
2023/07/15 03:57:09;;;;;;;8.20;7.60;;;23.10;19.20;;;;;;4997047;28;20188;-55
2023/07/15 03:59:35;;;;;;;8.07;7.67;;;23.10;19.30;;;;;;4996842;28;20177;-54
2023/07/15 04:02:02;;;;;;;8.20;7.50;;;23.10;19.50;;;;;;5013336;28;20474;-55
2023/07/15 04:04:27;;;;;;;8.00;7.60;;;23.10;19.50;;;;;;4996933;28;20439;-56
2023/07/15 04:06:54;;;;;;;7.20;6.80;;;23.10;19.40;;;;;;4996889;28;20459;-56
2023/07/15 04:09:20;;;;;;;8.43;7.93;;;23.10;19.30;;;;;;4996587;28;20255;-56
2023/07/15 04:11:46;;;;;;;7.63;7.23;;;23.10;19.50;;;;;;4996857;28;20846;-56
2023/07/15 04:14:12;;;;;;;7.87;7.47;;;23.10;19.50;;;;;;4996673;28;20511;-55
2023/07/15 04:16:38;;;;;;;7.70;7.30;;;23.10;19.50;;;;;;4996750;28;20169;-55
2023/07/15 04:19:04;;;;;;;8.87;8.30;;;23.10;19.70;;;;;;4996366;28;20408;-54
2023/07/15 04:21:30;;;;;;;7.90;7.50;;;23.10;20.20;;;;;;4996612;28;20424;-55
2023/07/15 04:23:55;;;;;;;7.77;7.27;;;23.10;20.10;;;;;;4996542;28;20173;-55
2023/07/15 04:26:25;;;;;;;7.80;7.50;;;23.10;20.00;;;;;;4996332;28;20220;-54
2023/07/15 04:28:52;;;;;;;8.07;7.60;;;23.10;20.00;;;;;;4996325;28;20199;-54
2023/07/15 04:31:18;;;;;;;7.97;7.47;;;23.10;20.00;;;;;;4996387;28;20412;-58
2023/07/15 04:33:48;;;;;;;7.87;7.37;;;23.20;20.10;;;;;;4996404;28;20408;-54
2023/07/15 04:36:17;;;;;;;8.03;7.63;;;23.20;20.00;;;;;;4996319;28;20813;-55
2023/07/15 04:38:42;;;;;;;7.60;7.17;;;23.20;19.70;;;;;;5013560;28;20408;-54
2023/07/15 04:41:08;;;;;;;7.93;7.53;;;23.20;19.60;;;;;;4996151;28;20409;-52
2023/07/15 04:43:33;;;;;;;7.90;7.37;;;23.20;19.60;;;;;;4996208;28;20181;-51
2023/07/15 04:46:00;;;;;;;8.60;7.60;;;23.20;19.60;;;;;;4996224;28;20185;-53
2023/07/15 04:48:25;;;;;;;7.73;7.30;;;23.30;19.60;;;;;;4995882;28;20668;-53
2023/07/15 04:50:51;;;;;;;8.43;7.73;;;23.30;19.40;;;;;;4996071;28;20455;-55
2023/07/15 04:53:17;;;;;;;8.00;7.10;;;23.30;19.40;;;;;;4995901;28;20178;-53
2023/07/15 04:55:46;;;;;;;7.00;6.50;;;23.30;19.00;;;;;;4996060;28;20719;-55
2023/07/15 04:58:15;;;;;;;6.93;6.57;;;23.30;19.20;;;;;;4995022;28;20276;-55
2023/07/15 05:00:41;;;;;;;7.20;6.90;;;23.30;19.40;;;;;;4995895;28;20912;-55
2023/07/15 05:03:07;;;;;;;7.90;7.50;;;23.30;19.10;;;;;;4995805;28;20912;-55
2023/07/15 05:05:33;;;;;;;7.17;6.87;;;23.40;19.10;;;;;;4995778;28;20415;-55
2023/07/15 05:08:14;;;;;;;9.80;9.30;;;23.30;18.80;;;;;;4995414;28;20235;-52
2023/07/15 05:10:40;;;;;;;8.20;7.80;;;23.40;18.80;;;;;;4995728;28;20260;-53
2023/07/15 05:13:07;;;;;;;7.70;7.30;;;23.40;17.00;;;;;;4995600;28;20519;-52
2023/07/15 05:15:33;;;;;;;7.40;7.00;;;23.50;17.40;;;;;;4995777;28;20239;-51
2023/07/15 05:17:59;;;;;;;7.30;7.00;;;23.50;16.20;;;;;;4995317;28;20456;-53
2023/07/15 05:20:25;;;;;;;7.80;7.40;;;23.60;16.10;;;;;;4995519;28;20515;-53
2023/07/15 05:22:51;;;;;;;7.50;6.80;;;23.60;15.50;;;;;;4995501;28;20511;-54
2023/07/15 05:25:17;;;;;;;7.40;6.97;;;23.70;15.60;;;;;;4995318;28;20243;-53
2023/07/15 05:27:43;;;;;;;7.73;7.03;;;23.80;16.20;;;;;;4980414;28;20461;-55
2023/07/15 05:30:09;;;;;;;7.27;6.97;;;23.70;16.60;;;;;;5003125;28;20416;-55
2023/07/15 05:32:35;;;;;;;7.37;7.07;;;23.80;15.60;;;;;;4994898;28;20200;-54
2023/07/15 05:35:01;;;;;;;6.60;6.20;;;23.80;15.10;;;;;;5002774;28;20841;-54
2023/07/15 05:37:26;;;;;;;6.63;6.33;;;23.90;14.90;;;;;;5002702;28;20184;-54
2023/07/15 05:39:52;;;;;;;6.97;6.57;;;23.90;14.80;;;;;;4994784;28;20212;-55
2023/07/15 05:42:19;;;;;;;7.13;6.73;;;24.00;14.80;;;;;;5011452;28;20185;-55
2023/07/15 05:44:45;;;;;;;6.97;6.57;;;24.00;15.00;;;;;;4995115;28;20177;-55
2023/07/15 05:47:11;;;;;;;7.20;6.80;;;24.00;15.00;;;;;;4994968;28;20547;-54
2023/07/15 05:49:36;;;;;;;7.43;6.93;;;24.10;15.10;;;;;;4994594;28;20668;-55
2023/07/15 05:52:02;;;;;;;7.13;6.83;;;24.10;15.20;;;;;;5010591;28;20189;-55
2023/07/15 05:54:27;;;;;;;7.83;7.33;;;24.20;15.20;;;;;;4993106;28;20174;-53
2023/07/15 05:56:53;;;;;;;7.17;6.77;;;24.20;15.30;;;;;;4993214;28;20638;-55
2023/07/15 05:59:19;;;;;;;8.13;7.43;;;24.20;15.30;;;;;;4993048;28;20185;-55
2023/07/15 06:01:46;;;;;;;7.80;7.40;;;24.20;15.10;;;;;;4993053;28;20184;-55
2023/07/15 06:04:11;;;;;;;8.67;8.07;;;24.30;15.20;;;;;;4976967;28;20416;-55
2023/07/15 06:06:37;;;;;;;8.03;7.53;;;24.30;15.10;;;;;;4992873;28;20597;-55
2023/07/15 06:09:03;;;;;;;7.30;7.00;;;24.40;14.80;;;;;;4994180;28;20596;-54
2023/07/15 06:11:28;;;;;;;8.47;8.00;;;24.50;14.50;;;;;;4994656;28;20174;-56
2023/07/15 06:13:54;;;;;;;8.27;7.70;;;24.50;14.50;;;;;;4994651;28;20188;-56
2023/07/15 06:16:20;;;;;;;8.40;8.10;;;24.60;14.00;;;;;;4994574;28;20181;-54
2023/07/15 06:18:46;;;;;;;8.70;8.20;;;24.70;13.70;;;;;;4994452;28;20173;-55
2023/07/15 06:21:12;;;;;;;7.90;7.50;;;24.80;13.30;;;;;;4994465;28;20499;-56
2023/07/15 06:23:37;;;;;;;8.63;8.00;;;24.80;13.10;;;;;;4994791;28;20540;-55
2023/07/15 06:26:03;;;;;;;7.87;7.47;;;24.90;13.00;;;;;;4994340;28;20189;-57
2023/07/15 06:28:28;;;;;;;7.93;7.63;;;25.00;12.60;;;;;;4994395;28;20209;-55
2023/07/15 06:31:06;;;;;;;7.23;6.90;;;25.10;12.60;;;;;;4994498;28;20657;-54
2023/07/15 06:33:33;;;;;;;7.43;7.10;;;25.20;12.20;;;;;;4994618;28;20187;-56
2023/07/15 06:35:59;;;;;;;7.50;7.20;;;25.30;12.20;;;;;;4994353;28;20458;-56
2023/07/15 06:38:26;;;;;;;7.07;6.57;;;25.40;12.20;;;;;;5012016;28;20421;-55
2023/07/15 06:40:52;;;;;;;7.37;6.90;;;25.50;12.10;;;;;;5011927;28;20284;-54
2023/07/15 06:43:18;;;;;;;6.87;6.57;;;25.50;11.90;;;;;;4994429;28;20980;-53
2023/07/15 06:45:43;;;;;;;6.77;6.47;;;25.60;11.70;;;;;;4994498;28;20187;-53
2023/07/15 06:48:09;;;;;;;7.37;6.97;;;25.70;11.60;;;;;;5010477;28;20205;-54
2023/07/15 06:50:36;;;;;;;7.67;7.17;;;25.80;11.50;;;;;;4994270;28;20169;-56
2023/07/15 06:53:02;;;;;;;7.33;6.93;;;25.90;11.00;;;;;;4994279;28;20518;-54
2023/07/15 06:55:28;;;;;;;6.77;6.40;;;26.00;10.90;;;;;;4994280;28;20404;-51
2023/07/15 06:57:53;;;;;;;6.63;6.23;;;26.10;10.70;;;;;;4994152;28;20178;-53
2023/07/15 07:00:21;;;;;;;6.87;6.57;;;26.20;10.60;;;;;;4994312;28;20178;-54
2023/07/15 07:02:47;;;;;;;7.10;6.60;;;26.30;10.40;;;;;;4994307;28;20174;-55
2023/07/15 07:05:13;;;;;;;7.00;6.60;;;26.40;10.50;;;;;;5011715;28;20412;-55
2023/07/15 07:07:38;;;;;;;7.37;6.87;;;26.50;9.90;;;;;;4994192;28;20209;-55
2023/07/15 07:10:04;;;;;;;7.37;6.77;;;26.60;9.80;;;;;;4993952;28;20570;-54
2023/07/15 07:12:30;;;;;;;6.87;6.47;;;26.60;10.30;;;;;;4994146;28;20220;-55
2023/07/15 07:14:56;;;;;;;6.93;6.63;;;26.70;9.50;;;;;;4994195;28;20928;-55
2023/07/15 07:17:21;;;;;;;7.33;7.03;;;26.90;9.30;;;;;;4994100;28;20173;-54
2023/07/15 07:19:47;;;;;;;6.50;6.20;;;27.00;9.30;;;;;;4993969;28;20684;-54
2023/07/15 07:22:13;;;;;;;6.90;6.60;;;27.10;9.00;;;;;;4997402;28;20184;-52
2023/07/15 07:24:38;;;;;;;7.10;6.80;;;27.20;9.00;;;;;;4997897;28;20177;-50
2023/07/15 07:27:04;;;;;;;6.83;6.53;;;27.30;8.70;;;;;;4997371;28;20463;-57
2023/07/15 07:29:33;;;;;;;7.93;7.47;;;27.40;8.80;;;;;;4997564;28;20656;-54
2023/07/15 07:31:58;;;;;;;7.90;7.50;;;27.50;8.80;;;;;;4997523;28;20174;-55
2023/07/15 07:34:24;;;;;;;7.60;7.30;;;27.60;8.40;;;;;;5015048;28;20462;-54
2023/07/15 07:36:49;;;;;;;8.10;7.63;;;27.70;8.90;;;;;;4997568;28;20271;-54
2023/07/15 07:39:15;;;;;;;8.20;7.80;;;27.80;8.00;;;;;;4997302;28;20177;-54
2023/07/15 07:41:41;;;;;;;6.83;6.53;;;28.00;7.50;;;;;;5013795;28;20778;-57
2023/07/15 07:44:08;;;;;;;7.40;7.10;;;28.20;7.10;;;;;;4997325;28;20183;-56
2023/07/15 07:46:34;;;;;;;7.47;7.07;;;28.30;6.80;;;;;;4997240;28;20585;-56
2023/07/15 07:49:00;;;;;;;6.80;6.43;;;28.40;6.40;;;;;;4997058;28;20837;-54
2023/07/15 07:51:26;;;;;;;6.87;6.57;;;28.50;6.00;;;;;;4997211;28;20444;-54
2023/07/15 07:53:51;;;;;;;6.87;6.47;;;28.60;5.70;;;;;;4997229;28;20538;-54
2023/07/15 07:56:17;;;;;;;7.37;7.00;;;28.70;6.00;;;;;;5014997;28;20227;-55
2023/07/15 07:58:44;;;;;;;7.80;7.47;;;28.70;5.90;;;;;;5013362;28;20608;-54
2023/07/15 08:01:10;;;;;;;7.13;6.83;;;28.80;5.80;;;;;;5014748;28;20170;-56
2023/07/15 08:03:36;;;;;;;7.70;6.80;;;28.80;5.80;;;;;;4997066;28;20924;-54
2023/07/15 08:06:04;;;;;;;6.07;5.77;;;28.90;5.60;;;;;;4996869;28;20494;-55
2023/07/15 08:08:30;;;;;;;6.43;6.10;;;29.00;5.00;;;;;;4996805;28;20205;-55
2023/07/15 08:10:56;;;;;;;6.97;6.57;;;29.10;5.10;;;;;;4996765;28;20443;-55
2023/07/15 08:13:22;;;;;;;7.50;7.00;;;29.20;5.10;;;;;;4996745;28;20169;-53
2023/07/15 08:15:47;;;;;;;6.70;6.40;;;29.40;4.80;;;;;;4996889;28;20173;-54
2023/07/15 08:18:13;;;;;;;7.57;7.10;;;29.60;4.10;;;;;;4996352;28;20431;-56
2023/07/15 08:20:41;;;;;;;7.60;7.20;;;29.60;3.90;;;;;;4996687;28;20178;-54
2023/07/15 08:23:07;;;;;;;7.20;6.70;;;29.60;3.70;;;;;;4996454;28;20243;-57
2023/07/15 08:25:32;;;;;;;7.27;6.97;;;29.70;4.00;;;;;;5014091;28;20440;-57
2023/07/15 08:27:58;;;;;;;7.10;6.80;;;29.70;3.90;;;;;;4996169;28;20201;-55
2023/07/15 08:30:24;;;;;;;6.50;6.20;;;29.70;3.90;;;;;;5013081;28;20173;-57
2023/07/15 08:32:50;;;;;;;7.17;6.77;;;29.60;3.90;;;;;;5012319;28;20196;-56
2023/07/15 08:35:15;;;;;;;7.03;6.60;;;29.60;4.00;;;;;;4995071;28;20634;-57
2023/07/15 08:37:42;;;;;;;6.93;6.63;;;29.50;4.00;;;;;;4994756;28;20467;-57
2023/07/15 08:40:08;;;;;;;8.93;7.40;;;29.50;3.80;;;;;;4994441;28;20231;-56
2023/07/15 08:42:35;;;;;;;6.80;6.50;;;29.60;3.30;;;;;;4994504;28;20422;-55
2023/07/15 08:45:01;;;;;;;6.83;6.53;;;29.60;3.40;;;;;;4994425;28;20780;-56
2023/07/15 08:47:27;;;;;;;6.33;5.93;;;29.60;3.30;;;;;;4995233;28;20472;-56
2023/07/15 08:49:55;;;;;;;6.43;6.00;;;29.70;3.40;;;;;;4995491;28;20588;-56
2023/07/15 08:52:22;;;;;;;7.10;6.70;;;29.80;3.40;;;;;;5003806;28;20474;-56
2023/07/15 08:54:53;;;;;;;6.60;6.30;;;29.70;3.90;;;;;;5003893;28;20431;-56
2023/07/15 08:57:20;;;;;;;6.53;6.23;;;29.80;3.40;;;;;;4995813;28;20420;-57
2023/07/15 08:59:55;;;;;;;7.80;7.40;;;29.70;3.50;;;;;;4995702;28;20499;-57
2023/07/15 09:02:21;;;;;;;7.00;6.60;;;29.70;3.70;;;;;;4995811;28;20423;-56
2023/07/15 09:04:46;;;;;;;6.93;6.53;;;29.60;4.60;;;;;;4995897;28;20417;-56
2023/07/15 09:07:12;;;;;;;6.13;5.90;;;29.70;3.00;;;;;;4995720;28;20209;-57
2023/07/15 09:09:39;;;;;;;7.57;7.10;;;29.80;2.60;;;;;;4995655;28;20279;-58
2023/07/15 09:12:07;;;;;;;7.27;6.83;;;30.00;2.30;;;;;;4995702;28;20170;-58
2023/07/15 09:14:46;;;;;;;6.77;6.47;;;30.00;3.10;;;;;;4995711;28;20420;-60
2023/07/15 09:17:17;;;;;;;6.70;6.40;;;30.20;2.00;;;;;;4995370;28;20431;-56
2023/07/15 09:19:44;;;;;;;6.43;6.23;;;30.40;2.30;;;;;;4995371;28;20423;-54
2023/07/15 09:22:10;;;;;;;6.87;6.47;;;30.60;1.20;;;;;;5011945;28;20424;-55
2023/07/15 09:24:39;;;;;;;6.60;6.30;;;30.70;1.30;;;;;;4995573;28;20442;-57
2023/07/15 09:27:06;;;;;;;7.20;6.70;;;31.00;1.00;;;;;;4995044;28;20209;-58
2023/07/15 09:29:32;;;;;;;7.60;7.10;;;31.10;1.00;;;;;;5013132;28;20467;-56
2023/07/15 09:31:58;;;;;;;7.00;6.70;;;31.10;1.00;;;;;;4995136;28;20808;-55
2023/07/15 09:34:24;;;;;;;6.83;6.53;;;31.20;1.00;;;;;;4995297;28;20412;-53
2023/07/15 09:36:51;;;;;;;7.10;6.80;;;31.30;1.00;;;;;;4995747;28;20177;-56
2023/07/15 09:39:22;;;;;;;6.90;6.60;;;31.50;1.00;;;;;;4995086;28;20447;-57
2023/07/15 09:42:05;;;;;;;6.60;6.20;;;31.60;1.00;;;;;;4995266;28;20416;-55
2023/07/15 09:44:40;;;;;;;6.43;6.13;;;31.80;1.00;;;;;;4995204;28;20427;-56
2023/07/15 09:47:06;;;;;;;6.80;6.50;;;31.90;1.00;;;;;;4994889;28;20495;-54
2023/07/15 09:49:33;;;;;;;6.83;6.53;;;31.90;1.00;;;;;;4994887;28;20451;-55
2023/07/15 09:51:59;;;;;;;6.80;6.50;;;32.20;1.00;;;;;;4994687;28;20506;-55
2023/07/15 09:54:26;;;;;;;6.80;6.50;;;32.20;1.00;;;;;;4995137;28;20417;-56
2023/07/15 09:56:58;;;;;;;6.97;6.67;;;32.10;1.00;;;;;;4994631;28;20920;-54
2023/07/15 09:59:28;;;;;;;7.40;7.10;;;32.20;1.00;;;;;;4995065;28;20423;-56
2023/07/15 10:01:58;;;;;;;6.90;6.50;;;32.40;1.00;;;;;;4995170;28;20417;-56
2023/07/15 10:04:35;;;;;;;7.37;6.97;;;32.80;1.00;;;;;;4995233;28;20415;-56
2023/07/15 10:07:04;;;;;;;6.77;6.47;;;32.90;1.00;;;;;;4994927;28;20491;-56
2023/07/15 10:09:33;;;;;;;6.33;6.13;;;32.90;1.00;;;;;;5012527;28;20897;-56
2023/07/15 10:11:59;;;;;;;7.10;6.60;;;33.00;1.00;;;;;;4994920;28;20948;-55
2023/07/15 10:14:27;;;;;;;6.90;6.50;;;33.20;1.00;;;;;;4995014;28;20810;-56
2023/07/15 10:17:11;;;;;;;6.70;6.27;;;33.30;1.00;;;;;;4994823;28;20502;-56
2023/07/15 10:19:50;;;;;;;9.07;8.67;;;33.40;1.00;;;;;;4993608;28;20498;-55
2023/07/15 10:22:22;;;;;;;6.90;6.60;;;33.40;1.00;;;;;;4983495;28;20416;-56
2023/07/15 10:24:56;;;;;;;6.77;6.47;;;33.40;1.00;;;;;;5002904;28;20417;-55
2023/07/15 10:27:26;;;;;;;7.47;7.00;;;33.30;1.00;;;;;;5011428;28;20475;-56
2023/07/15 10:30:17;;;;;;;6.97;6.57;;;33.10;1.00;;;;;;5010922;28;20412;-56
2023/07/15 10:32:58;;;;;;;6.53;6.23;;;33.00;1.00;;;;;;5010700;28;20443;-55
2023/07/15 10:35:26;;;;;;;6.60;6.30;;;32.90;1.00;;;;;;5004882;28;20420;-56
2023/07/15 10:37:51;;;;;;;7.03;6.73;;;32.70;1.00;;;;;;4988397;28;21218;-56
2023/07/15 10:40:58;;;;;;;7.13;6.73;;;32.60;1.00;;;;;;4987706;28;20417;-56
2023/07/15 10:43:43;;;;;;;7.40;7.00;;;32.50;1.00;;;;;;4987872;28;20268;-55
2023/07/15 10:46:11;;;;;;;7.67;7.37;;;32.20;1.00;;;;;;4987462;28;20483;-57
2023/07/15 10:48:38;;;;;;;7.30;6.90;;;32.20;1.00;;;;;;4989060;28;20460;-56
2023/07/15 10:51:06;;;;;;;7.17;6.77;;;32.20;1.00;;;;;;4990659;28;20774;-56
2023/07/15 10:53:32;;;;;;;7.20;6.80;;;32.20;1.00;;;;;;4991104;28;20491;-56
2023/07/15 10:56:05;;;;;;;7.70;7.13;;;32.30;1.00;;;;;;4992605;28;20460;-57
2023/07/15 10:58:35;;;;;;;6.87;6.57;;;32.50;1.00;;;;;;4994880;28;20777;-57
2023/07/15 11:01:09;;;;;;;6.20;5.90;;;32.80;1.00;;;;;;4994815;28;20417;-57
2023/07/15 11:03:42;;;;;;;7.20;6.80;;;33.10;1.00;;;;;;4995019;28;20491;-56
2023/07/15 11:06:08;;;;;;;7.20;6.80;;;33.10;1.00;;;;;;4987404;28;20421;-56
2023/07/15 11:08:34;;;;;;;6.03;5.77;;;33.00;1.00;;;;;;4988532;28;20828;-64
2023/07/15 11:11:01;;;;;;;6.93;6.63;;;33.10;1.00;;;;;;5022899;23;20888;-60
2023/07/15 11:13:28;;;;;;;6.70;6.20;;;33.20;1.00;;;;;;4954395;29;20187;-61
2023/07/15 11:15:54;;;;;;;6.90;6.40;;;33.10;1.00;;;;;;4955053;28;20419;-61
2023/07/15 11:18:21;;;;;;;6.87;6.47;;;33.00;1.00;;;;;;4955215;29;20431;-60
2023/07/15 11:20:51;;;;;;;6.57;6.27;;;33.20;1.00;;;;;;4955329;29;20422;-61
2023/07/15 11:23:17;;;;;;;6.67;6.33;;;33.30;1.00;;;;;;4969796;28;20431;-61
2023/07/15 11:25:43;;;;;;;6.50;6.20;;;33.30;1.00;;;;;;4952652;29;20999;-61
2023/07/15 11:28:10;;;;;;;7.10;6.80;;;33.30;1.00;;;;;;4953554;29;20469;-61
2023/07/15 11:30:37;;;;;;;6.47;6.17;;;33.40;1.00;;;;;;4971064;28;20755;-61
2023/07/15 11:33:04;;;;;;;6.17;5.87;;;33.30;1.00;;;;;;4970980;28;20427;-61
2023/07/15 11:35:34;;;;;;;6.70;6.30;;;33.50;1.00;;;;;;4971133;28;20414;-60
2023/07/15 11:38:15;;;;;;;7.13;6.70;;;33.40;1.00;;;;;;4970677;28;20481;-61
2023/07/15 11:40:53;;;;;;;7.23;6.70;;;33.20;1.00;;;;;;4954944;28;20418;-61
2023/07/15 11:43:20;;;;;;;7.40;6.80;;;32.80;1.00;;;;;;4954805;28;20872;-61
2023/07/15 11:45:46;;;;;;;8.50;8.00;;;32.60;1.00;;;;;;4970822;28;20959;-61
2023/07/15 11:48:12;;;;;;;7.40;7.00;;;32.30;1.20;;;;;;4970084;28;21042;-61
2023/07/15 11:50:38;;;;;;;7.90;7.07;;;32.20;1.70;;;;;;4970883;28;20510;-61
2023/07/15 11:53:03;;;;;;;7.93;7.63;;;31.90;1.90;;;;;;4970475;28;20274;-61
2023/07/15 11:55:30;;;;;;;7.67;7.33;;;31.80;1.40;;;;;;4970748;28;20182;-61
2023/07/15 11:57:56;;;;;;;7.97;7.60;;;31.70;1.00;;;;;;4970183;28;20179;-61
2023/07/15 12:00:33;;;;;;;7.27;6.90;;;31.60;1.00;;;;;;4970502;28;20514;-61
2023/07/15 12:03:07;;;;;;;7.97;7.57;;;31.50;1.70;;;;;;4970457;28;20778;-60
2023/07/15 12:05:37;;;;;;;7.90;7.50;;;31.50;1.70;;;;;;4970569;28;20486;-60
2023/07/15 12:08:13;;;;;;;7.50;7.00;;;31.60;1.70;;;;;;4969764;28;20892;-64
2023/07/15 12:10:55;;;;;;;7.57;7.27;;;31.60;2.00;;;;;;4987265;28;20476;-60
2023/07/15 12:13:21;;;;;;;8.20;7.70;;;31.60;1.70;;;;;;4973498;28;20416;-61
2023/07/15 12:15:46;;;;;;;8.20;7.70;;;31.60;1.70;;;;;;4973603;28;20426;-61
2023/07/15 12:18:12;;;;;;;8.17;7.43;;;31.50;1.70;;;;;;4972752;28;20989;-61
2023/07/15 12:20:38;;;;;;;8.07;7.47;;;31.40;1.60;;;;;;4973494;28;20174;-60
2023/07/15 12:23:03;;;;;;;8.30;7.80;;;31.40;1.60;;;;;;4963518;28;20676;-60
2023/07/15 12:25:29;;;;;;;9.00;8.23;;;31.40;2.70;;;;;;4934908;29;20176;-61
2023/07/15 12:27:55;;;;;;;7.97;7.60;;;31.40;3.00;;;;;;4942149;28;20211;-62
2023/07/15 12:30:21;;;;;;;9.07;8.47;;;31.30;3.20;;;;;;4952568;28;20574;-61
2023/07/15 12:32:46;;;;;;;8.00;7.40;;;31.30;2.90;;;;;;4968741;28;20645;-59
2023/07/15 12:35:12;;;;;;;8.37;7.97;;;31.20;3.00;;;;;;4953720;28;20175;-62
2023/07/15 12:37:38;;;;;;;7.87;7.27;;;31.30;2.70;;;;;;4952572;29;20175;-61
2023/07/15 12:40:06;;;;;;;7.90;7.40;;;31.20;3.00;;;;;;4952165;28;20275;-61
2023/07/15 12:42:31;;;;;;;8.10;7.50;;;31.20;2.60;;;;;;4952910;29;20582;-61
2023/07/15 12:44:57;;;;;;;7.43;7.03;;;31.20;2.90;;;;;;4969315;28;20990;-62
2023/07/15 12:47:23;;;;;;;7.80;7.20;;;31.20;3.10;;;;;;4969362;28;20566;-61
2023/07/15 12:49:48;;;;;;;7.23;6.83;;;31.20;2.90;;;;;;4952431;28;20187;-61